Dawson, Alabama
Current Conditions -  °F | °C
As of 12:15 PM on Thursday 27 Nov 2014 (Local Time) from K4A9 Reporting Station
Overcast Overcast  
Wind Chill:   Ceiling: 3200
Heat Index:   Visibility: 10mi
Dew Point: -3°   Wind: 9mph
Humidity: 61%   Direction: 310°NW
Pressure: 30.34"   Gusts: 16mph
Location:  34.3°N, 85.93°W
Report Text: K4A9 271815Z AUTO 31008G14KT 10SM BKN032 OVC040 04/M03 A3034 RMK AO2
Loading
Personal Weather Stations






























Interactive Weather Map New forecast layout! Learn more

10-Day Weather Forecast

Advertisements
Track Severe Weather on mobile